Baxter Estates, New York
Current Conditions -  °F | °C
As of 3:51 AM on Thursday 18 Dec 2014 (Local Time) from KLGA Reporting Station
Overcast Overcast  
Wind Chill: 30°   Ceiling: 9000
Heat Index: 40°   Visibility: 10mi
Dew Point: 25°   Wind: 22mph
Humidity: 55%   Direction: 300°WNW
Pressure: 29.9"   Gusts: 33mph
Location:  40.8387°N, 73.6912°W
Report Text: KLGA 180851Z 30019G29KT 10SM FEW070 OVC090 04/M04 A2990 RMK AO2 PK WND 32032/0759 SLP125 60000 T00441039 50009
Loading
Personal Weather Stations






























Interactive Weather Map New forecast layout! Learn more

10-Day Weather Forecast

Advertisements
Track Severe Weather on mobile